createdAt,value
2023-03-03T00:01:49.186Z,6.30
2023-03-03T00:04:16.139Z,6.63
2023-03-03T00:06:45.446Z,6.65
2023-03-03T00:09:12.324Z,6.03
2023-03-03T00:11:39.237Z,5.85
2023-03-03T00:14:22.089Z,6.63
2023-03-03T00:16:49.952Z,5.95
2023-03-03T00:19:19.645Z,5.40
2023-03-03T00:21:48.336Z,7.75
2023-03-03T00:24:21.224Z,6.65
2023-03-03T00:26:51.687Z,5.90
2023-03-03T00:29:30.881Z,6.03
2023-03-03T00:32:16.590Z,6.28
2023-03-03T00:34:44.372Z,7.65
2023-03-03T00:37:27.762Z,6.50
2023-03-03T00:42:27.979Z,6.32
2023-03-03T00:45:01.132Z,7.53
2023-03-03T00:47:38.453Z,9.43
2023-03-03T00:50:11.168Z,6.22
2023-03-03T00:52:41.338Z,11.97
2023-03-03T00:55:09.101Z,7.15
2023-03-03T00:57:36.183Z,7.05
2023-03-03T01:00:05.682Z,6.25
2023-03-03T01:02:33.161Z,8.15
2023-03-03T01:05:00.662Z,5.65
2023-03-03T01:07:27.586Z,5.88
2023-03-03T01:09:55.308Z,6.13
2023-03-03T01:12:23.468Z,7.25
2023-03-03T01:14:53.022Z,5.47
2023-03-03T01:17:20.167Z,5.82
2023-03-03T01:19:47.063Z,5.60
2023-03-03T01:22:14.070Z,5.55
2023-03-03T01:24:40.975Z,5.82
2023-03-03T01:27:08.061Z,5.28
2023-03-03T01:29:34.957Z,5.47
2023-03-03T01:32:01.955Z,5.85
2023-03-03T01:34:28.917Z,5.82
2023-03-03T01:36:55.818Z,5.45
2023-03-03T01:39:22.854Z,5.53
2023-03-03T01:41:49.761Z,6.07
2023-03-03T01:44:16.802Z,5.15
2023-03-03T01:47:09.494Z,5.43
2023-03-03T01:49:52.453Z,6.45
2023-03-03T01:52:27.411Z,5.28
2023-03-03T01:55:00.423Z,5.35
2023-03-03T01:57:33.379Z,6.00
2023-03-03T02:00:01.854Z,5.63
2023-03-03T02:02:29.937Z,5.53
2023-03-03T02:04:57.063Z,6.18
2023-03-03T02:07:26.723Z,5.80
2023-03-03T02:10:08.085Z,5.47
2023-03-03T02:12:51.703Z,5.68
2023-03-03T02:15:21.800Z,5.22
2023-03-03T02:17:51.785Z,5.05
2023-03-03T02:20:21.780Z,5.13
2023-03-03T02:23:29.676Z,5.30
2023-03-03T02:25:58.842Z,5.30
2023-03-03T02:28:31.544Z,4.90
2023-03-03T02:31:03.162Z,5.70
2023-03-03T02:33:30.309Z,6.00
2023-03-03T02:35:57.395Z,5.57
2023-03-03T02:38:32.379Z,5.00
2023-03-03T02:41:10.186Z,5.57
2023-03-03T02:43:57.205Z,4.97
2023-03-03T02:46:25.822Z,4.78
2023-03-03T02:48:53.463Z,5.10
2023-03-03T02:51:20.685Z,5.80
2023-03-03T02:53:47.709Z,4.90
2023-03-03T02:56:14.897Z,5.03
2023-03-03T02:58:42.041Z,4.68
2023-03-03T03:01:09.225Z,5.32
2023-03-03T03:03:36.958Z,5.47
2023-03-03T03:06:06.161Z,5.43
2023-03-03T03:08:34.801Z,5.18
2023-03-03T03:11:02.155Z,5.53
2023-03-03T03:13:31.964Z,5.43
2023-03-03T03:16:00.160Z,5.03
2023-03-03T03:18:28.103Z,6.38
2023-03-03T03:20:57.078Z,5.18
2023-03-03T03:23:23.997Z,5.30
2023-03-03T03:25:51.030Z,5.25
2023-03-03T03:28:24.317Z,5.03
2023-03-03T03:30:51.791Z,5.28
2023-03-03T03:33:20.045Z,5.68
2023-03-03T03:35:48.310Z,4.97
2023-03-03T03:38:17.154Z,4.70
2023-03-03T03:40:44.547Z,5.30
2023-03-03T03:43:11.941Z,5.00
2023-03-03T03:45:39.415Z,5.00
2023-03-03T03:48:07.391Z,4.93
2023-03-03T03:50:34.409Z,5.32
2023-03-03T03:53:01.725Z,4.72
2023-03-03T03:55:29.999Z,4.55
2023-03-03T03:57:57.355Z,4.45
2023-03-03T04:00:24.905Z,4.10
2023-03-03T04:02:56.762Z,4.38
2023-03-03T04:05:24.381Z,3.88
2023-03-03T04:07:51.732Z,4.38
2023-03-03T04:10:19.708Z,3.80
2023-03-03T04:12:47.424Z,4.30
2023-03-03T04:15:15.705Z,4.40
2023-03-03T04:17:43.292Z,4.00
2023-03-03T04:20:13.925Z,4.35
2023-03-03T04:22:44.056Z,4.40
2023-03-03T04:25:15.982Z,4.55
2023-03-03T04:27:44.826Z,4.50
2023-03-03T04:30:15.002Z,3.95
2023-03-03T04:32:43.959Z,3.80
2023-03-03T04:35:12.939Z,3.92
2023-03-03T04:37:42.940Z,4.00
2023-03-03T04:40:11.737Z,4.30
2023-03-03T04:42:40.127Z,4.93
2023-03-03T04:45:09.457Z,3.97
2023-03-03T04:47:36.953Z,4.00
2023-03-03T04:50:05.342Z,4.07
2023-03-03T04:52:33.759Z,5.63
2023-03-03T04:55:03.161Z,4.60
2023-03-03T04:57:30.800Z,4.53
2023-03-03T04:59:58.618Z,4.55
2023-03-03T05:02:25.889Z,4.70
2023-03-03T05:04:53.087Z,4.32
2023-03-03T05:07:20.935Z,4.20
2023-03-03T05:09:47.880Z,4.60
2023-03-03T05:12:14.898Z,4.38
2023-03-03T05:14:42.354Z,4.28
2023-03-03T05:17:09.315Z,4.00
2023-03-03T05:19:36.424Z,4.10
2023-03-03T05:22:03.371Z,4.28
2023-03-03T05:24:31.192Z,4.80
2023-03-03T05:26:58.237Z,4.63
2023-03-03T05:29:25.146Z,4.78
2023-03-03T05:31:52.064Z,5.45
2023-03-03T05:34:19.005Z,4.53
2023-03-03T05:36:45.930Z,4.75
2023-03-03T05:39:12.853Z,4.78
2023-03-03T05:41:40.350Z,3.88
2023-03-03T05:44:07.820Z,3.70
2023-03-03T05:46:34.757Z,4.82
2023-03-03T05:49:01.846Z,4.18
2023-03-03T05:51:28.928Z,4.97
2023-03-03T05:53:56.615Z,3.83
2023-03-03T05:56:23.673Z,3.33
2023-03-03T05:58:50.593Z,4.65
2023-03-03T06:01:17.755Z,4.28
2023-03-03T06:03:44.685Z,3.10
2023-03-03T06:06:12.428Z,4.15
2023-03-03T06:08:39.529Z,3.50
2023-03-03T06:11:06.479Z,3.97
2023-03-03T06:13:33.717Z,3.67
2023-03-03T06:16:00.713Z,4.00
2023-03-03T06:18:27.778Z,3.70
2023-03-03T06:20:55.526Z,3.92
2023-03-03T06:23:22.786Z,4.05
2023-03-03T06:25:49.818Z,5.07
2023-03-03T06:28:16.755Z,3.38
2023-03-03T06:30:43.710Z,4.18
2023-03-03T06:33:11.270Z,4.28
2023-03-03T06:35:38.370Z,4.78
2023-03-03T06:38:05.309Z,4.63
2023-03-03T06:40:33.031Z,4.50
2023-03-03T06:43:00.030Z,4.72
2023-03-03T06:45:27.000Z,5.50
2023-03-03T06:47:53.894Z,4.90
2023-03-03T06:50:21.462Z,5.20
2023-03-03T06:52:48.534Z,4.80
2023-03-03T06:55:23.443Z,5.07
2023-03-03T06:57:50.361Z,5.13
2023-03-03T07:00:24.961Z,5.75
2023-03-03T07:03:29.690Z,5.80
2023-03-03T07:08:24.761Z,4.32
2023-03-03T07:10:53.026Z,4.82
2023-03-03T07:13:22.805Z,4.45
2023-03-03T07:15:52.252Z,5.20
2023-03-03T07:18:46.199Z,6.05
2023-03-03T07:21:35.337Z,6.47
2023-03-03T07:24:22.497Z,8.32
2023-03-03T07:26:49.727Z,9.13
2023-03-03T07:29:28.525Z,7.35
2023-03-03T07:31:57.972Z,7.03
2023-03-03T07:34:48.224Z,8.15
2023-03-03T07:37:27.340Z,7.90
2023-03-03T07:39:54.649Z,7.53
2023-03-03T07:42:37.993Z,8.73
2023-03-03T07:45:32.472Z,7.10
2023-03-03T07:48:24.645Z,6.40
2023-03-03T07:50:52.412Z,6.60
2023-03-03T07:53:34.779Z,8.65
2023-03-03T07:56:02.092Z,8.00
2023-03-03T07:58:39.462Z,7.18
2023-03-03T08:01:24.455Z,6.38
2023-03-03T08:03:51.844Z,7.60
2023-03-03T08:06:41.726Z,6.05
2023-03-03T08:09:37.894Z,6.85
2023-03-03T08:12:07.901Z,6.78
2023-03-03T08:14:37.479Z,7.05
2023-03-03T08:17:25.245Z,7.68
2023-03-03T08:19:54.381Z,6.57
2023-03-03T08:22:33.232Z,6.65
2023-03-03T08:25:00.201Z,7.97
2023-03-03T08:27:27.247Z,7.82
2023-03-03T08:29:54.294Z,8.00
2023-03-03T08:32:21.356Z,8.00
2023-03-03T08:34:48.487Z,8.93
2023-03-03T08:37:15.428Z,8.52
2023-03-03T08:39:42.931Z,7.82
2023-03-03T08:42:11.030Z,7.75
2023-03-03T08:44:37.986Z,8.18
2023-03-03T08:47:05.011Z,7.63
2023-03-03T08:49:31.963Z,8.00
2023-03-03T08:52:00.725Z,8.70
2023-03-03T08:54:27.690Z,7.97
2023-03-03T08:56:54.594Z,7.60
2023-03-03T08:59:22.400Z,8.00
2023-03-03T09:01:49.466Z,7.43
2023-03-03T09:04:16.430Z,7.97
2023-03-03T09:06:43.337Z,9.23
2023-03-03T09:09:10.234Z,8.70
2023-03-03T09:11:37.185Z,9.07
2023-03-03T09:14:10.794Z,9.57
2023-03-03T09:16:44.798Z,10.00
2023-03-03T09:19:32.345Z,9.77
2023-03-03T09:22:22.504Z,10.20
2023-03-03T09:24:51.020Z,10.02
2023-03-03T09:27:27.274Z,10.95
2023-03-03T09:29:54.251Z,10.07
2023-03-03T09:32:43.231Z,9.98
2023-03-03T09:35:28.323Z,11.20
2023-03-03T09:37:55.280Z,11.38
2023-03-03T15:50:30.000Z,22.73
2023-03-03T15:53:02.057Z,16.75
2023-03-03T15:55:50.129Z,13.48
2023-03-03T15:58:36.275Z,15.52
2023-03-03T16:01:11.071Z,14.65
2023-03-03T16:03:54.714Z,12.65
2023-03-03T16:06:34.140Z,13.15
2023-03-03T16:09:22.753Z,13.40
2023-03-03T16:11:58.903Z,13.18
2023-03-03T16:14:51.458Z,16.30
2023-03-03T16:17:18.388Z,14.30
2023-03-03T16:20:22.373Z,15.05
2023-03-03T16:23:01.577Z,12.73
2023-03-03T16:25:50.324Z,10.95
2023-03-03T16:28:27.579Z,11.07
2023-03-03T16:30:54.517Z,13.52
2023-03-03T16:33:33.151Z,12.15
2023-03-03T16:36:12.948Z,13.10
2023-03-03T16:39:03.418Z,13.45
2023-03-03T16:41:50.429Z,13.73
2023-03-03T16:44:32.237Z,12.95
2023-03-03T16:47:32.709Z,13.07
2023-03-03T16:50:37.135Z,14.13
2023-03-03T16:53:26.371Z,13.65
2023-03-03T16:56:14.411Z,13.77
2023-03-03T16:58:49.204Z,13.18
2023-03-03T17:01:33.311Z,12.93
2023-03-03T17:04:34.157Z,13.23
2023-03-03T17:07:15.498Z,14.00
2023-03-03T17:09:54.665Z,14.02
2023-03-03T17:12:46.566Z,13.98
2023-03-03T17:15:34.262Z,13.80
2023-03-03T17:18:12.699Z,13.20
2023-03-03T17:20:58.399Z,15.40
2023-03-03T17:23:41.741Z,15.18
2023-03-03T17:26:39.508Z,13.75
2023-03-03T17:29:35.488Z,14.93
2023-03-03T17:32:13.971Z,15.57
2023-03-03T17:35:15.369Z,16.15
2023-03-03T17:38:11.500Z,17.13
2023-03-03T17:41:06.266Z,17.33
2023-03-03T17:43:50.255Z,16.70
2023-03-03T17:46:39.069Z,16.95
2023-03-03T17:49:29.279Z,16.77
2023-03-03T17:52:10.282Z,17.00
2023-03-03T17:55:04.689Z,17.67
2023-03-03T18:00:15.879Z,17.15
2023-03-03T18:02:58.458Z,16.67
2023-03-03T18:06:04.851Z,19.15
2023-03-03T18:09:14.187Z,16.08
2023-03-03T18:12:23.352Z,16.77
2023-03-03T18:15:12.829Z,15.43
2023-03-03T18:18:04.723Z,16.70
2023-03-03T18:20:50.145Z,17.27
2023-03-03T18:23:44.367Z,18.98
2023-03-03T18:26:37.821Z,16.48
2023-03-03T18:29:16.449Z,18.33
2023-03-03T18:31:58.503Z,17.52
2023-03-03T18:34:36.130Z,17.40
2023-03-03T18:37:31.376Z,17.13
2023-03-03T18:40:04.321Z,17.10
2023-03-03T18:42:45.538Z,17.33
2023-03-03T18:45:18.284Z,16.90
2023-03-03T18:48:17.372Z,17.30
2023-03-03T18:50:49.909Z,17.63
2023-03-03T18:53:27.292Z,18.17
2023-03-03T18:55:56.547Z,18.95
2023-03-03T18:58:34.442Z,17.40
2023-03-03T19:01:10.744Z,16.77
2023-03-03T19:03:57.920Z,17.80
2023-03-03T19:06:35.743Z,17.85
2023-03-03T19:09:04.805Z,17.70
2023-03-03T19:11:54.486Z,17.50
2023-03-03T19:14:29.435Z,17.60
2023-03-03T19:17:16.397Z,20.15
2023-03-03T19:20:05.607Z,17.25
2023-03-03T19:22:47.386Z,17.00
2023-03-03T19:25:31.910Z,16.48
2023-03-03T19:28:19.930Z,17.42
2023-03-03T19:30:58.120Z,17.42
2023-03-03T19:33:41.848Z,16.67
2023-03-03T19:36:19.026Z,16.75
2023-03-03T19:38:57.845Z,17.25
2023-03-03T19:41:34.930Z,16.38
2023-03-03T19:44:17.517Z,16.80
2023-03-03T19:47:04.363Z,16.13
2023-03-03T19:49:49.367Z,15.32
2023-03-03T19:52:16.419Z,15.13
2023-03-03T19:54:49.428Z,15.50
2023-03-03T19:57:47.156Z,16.23
2023-03-03T20:00:55.492Z,15.20
2023-03-03T20:03:41.260Z,16.98
2023-03-03T20:06:23.434Z,17.55
2023-03-03T20:09:18.744Z,14.93
2023-03-03T20:12:10.111Z,15.23
2023-03-03T20:14:44.279Z,14.95
2023-03-03T20:17:30.930Z,14.68
2023-03-03T20:20:31.843Z,13.73
2023-03-03T20:23:25.862Z,14.75
2023-03-03T20:26:24.927Z,14.10
2023-03-03T20:29:10.460Z,13.15
2023-03-03T20:31:53.132Z,13.60
2023-03-03T20:34:54.033Z,13.57
2023-03-03T20:37:51.359Z,14.25
2023-03-03T20:40:31.194Z,13.45
2023-03-03T20:43:19.817Z,13.82
2023-03-03T20:46:07.802Z,13.30
2023-03-03T20:48:53.189Z,13.25
2023-03-03T20:51:42.954Z,12.73
2023-03-03T20:54:44.550Z,14.85
2023-03-03T20:57:23.750Z,14.57
2023-03-03T21:00:04.298Z,13.93
2023-03-03T21:02:36.962Z,14.30
2023-03-03T21:05:24.242Z,13.27
2023-03-03T21:08:03.575Z,12.63
2023-03-03T21:10:33.868Z,12.95
2023-03-03T21:13:34.041Z,12.48
2023-03-03T21:16:21.723Z,13.20
2023-03-03T21:19:03.169Z,11.40
2023-03-03T21:21:33.475Z,11.73
2023-03-03T21:24:01.345Z,11.38
2023-03-03T21:26:57.515Z,10.98
2023-03-03T21:29:31.109Z,10.80
2023-03-03T21:32:03.498Z,12.77
2023-03-03T21:34:39.230Z,12.70
2023-03-03T21:37:12.323Z,12.07
2023-03-03T21:39:42.009Z,11.65
2023-03-03T21:42:11.081Z,11.02
2023-03-03T21:44:46.759Z,12.20
2023-03-03T21:47:17.972Z,10.85
2023-03-03T21:49:47.272Z,11.63
2023-03-03T21:52:16.490Z,11.57
2023-03-03T21:54:44.180Z,12.50
2023-03-03T21:57:11.219Z,12.05
2023-03-03T21:59:38.301Z,11.57
2023-03-03T22:02:06.528Z,11.57
2023-03-03T22:04:33.867Z,11.27
2023-03-03T22:07:01.523Z,10.75
2023-03-03T22:09:28.434Z,11.13
2023-03-03T22:11:55.428Z,10.68
2023-03-03T22:14:22.368Z,10.40
2023-03-03T22:16:49.308Z,10.80
2023-03-03T22:19:16.324Z,10.13
2023-03-03T22:21:43.615Z,10.90
2023-03-03T22:24:10.584Z,9.35
2023-03-03T22:26:37.473Z,10.10
2023-03-03T22:29:05.241Z,10.30
2023-03-03T22:31:32.263Z,10.27
2023-03-03T22:33:59.272Z,9.73
2023-03-03T22:36:26.266Z,10.18
2023-03-03T22:38:53.261Z,9.95
2023-03-03T22:41:20.607Z,10.07
2023-03-03T22:43:48.171Z,9.45
2023-03-03T22:46:15.288Z,8.55
2023-03-03T22:48:42.305Z,9.57
2023-03-03T22:51:09.275Z,9.25
2023-03-03T22:53:36.178Z,8.45
2023-03-03T22:56:03.146Z,8.48
2023-03-03T22:58:31.193Z,8.38
2023-03-03T23:00:58.103Z,7.93
2023-03-03T23:03:25.405Z,8.38
2023-03-03T23:05:52.487Z,8.52
2023-03-03T23:08:20.534Z,9.65
2023-03-03T23:10:48.292Z,8.63
2023-03-03T23:13:15.776Z,9.27
2023-03-03T23:15:43.163Z,8.95
2023-03-03T23:18:10.759Z,9.52
2023-03-03T23:20:38.178Z,10.60
2023-03-03T23:23:05.185Z,8.98
2023-03-03T23:25:32.190Z,9.98
2023-03-03T23:27:59.157Z,8.50
2023-03-03T23:30:26.255Z,8.82
2023-03-03T23:32:53.559Z,8.30
2023-03-03T23:35:20.972Z,8.75
2023-03-03T23:37:48.532Z,8.63
2023-03-03T23:40:17.071Z,9.27
2023-03-03T23:42:44.303Z,9.52
2023-03-03T23:45:12.432Z,8.40
2023-03-03T23:47:39.644Z,8.50
2023-03-03T23:50:07.239Z,9.00
2023-03-03T23:52:34.203Z,10.77
2023-03-03T23:55:01.698Z,9.10
2023-03-03T23:57:28.628Z,8.75
2023-03-03T23:59:55.543Z,9.32
